sensor_id;sensor_type;location;lat;lon;timestamp;P1;durP1;ratioP1;P2;durP2;ratioP2
7432;SDS011;32233;49.500;7.764;2024-03-23T00:53:36;12.67;;;9.70;;
7432;SDS011;32233;49.500;7.764;2024-03-23T00:56:02;13.93;;;11.10;;
7432;SDS011;32233;49.500;7.764;2024-03-23T00:58:28;13.63;;;11.37;;
7432;SDS011;32233;49.500;7.764;2024-03-23T01:00:54;16.70;;;11.63;;
7432;SDS011;32233;49.500;7.764;2024-03-23T01:03:19;15.60;;;11.67;;
7432;SDS011;32233;49.500;7.764;2024-03-23T01:05:45;17.47;;;12.37;;
7432;SDS011;32233;49.500;7.764;2024-03-23T01:08:10;16.10;;;12.80;;
7432;SDS011;32233;49.500;7.764;2024-03-23T01:10:36;20.10;;;13.17;;
7432;SDS011;32233;49.500;7.764;2024-03-23T01:13:01;20.13;;;14.23;;
7432;SDS011;32233;49.500;7.764;2024-03-23T01:15:27;22.90;;;15.03;;
7432;SDS011;32233;49.500;7.764;2024-03-23T01:17:53;24.73;;;18.40;;
7432;SDS011;32233;49.500;7.764;2024-03-23T01:20:18;27.90;;;20.10;;
7432;SDS011;32233;49.500;7.764;2024-03-23T01:22:44;31.97;;;21.70;;
7432;SDS011;32233;49.500;7.764;2024-03-23T01:25:09;27.87;;;19.87;;
7432;SDS011;32233;49.500;7.764;2024-03-23T01:27:35;32.57;;;20.73;;
7432;SDS011;32233;49.500;7.764;2024-03-23T01:30:01;31.07;;;20.23;;
7432;SDS011;32233;49.500;7.764;2024-03-23T01:32:26;35.57;;;22.33;;
7432;SDS011;32233;49.500;7.764;2024-03-23T01:34:52;31.63;;;20.47;;
7432;SDS011;32233;49.500;7.764;2024-03-23T01:37:18;31.63;;;20.33;;
7432;SDS011;32233;49.500;7.764;2024-03-23T01:39:43;33.77;;;21.20;;
7432;SDS011;32233;49.500;7.764;2024-03-23T01:42:09;34.37;;;21.33;;
7432;SDS011;32233;49.500;7.764;2024-03-23T01:44:34;35.90;;;22.73;;
7432;SDS011;32233;49.500;7.764;2024-03-23T01:47:00;39.93;;;22.93;;
7432;SDS011;32233;49.500;7.764;2024-03-23T01:49:26;34.97;;;22.67;;
7432;SDS011;32233;49.500;7.764;2024-03-23T01:51:51;34.93;;;22.50;;
7432;SDS011;32233;49.500;7.764;2024-03-23T01:54:17;34.37;;;22.23;;
7432;SDS011;32233;49.500;7.764;2024-03-23T01:56:43;32.10;;;21.50;;
7432;SDS011;32233;49.500;7.764;2024-03-23T01:59:09;32.80;;;21.53;;
7432;SDS011;32233;49.500;7.764;2024-03-23T02:01:35;33.97;;;23.00;;
7432;SDS011;32233;49.500;7.764;2024-03-23T02:04:03;35.80;;;22.80;;
7432;SDS011;32233;49.500;7.764;2024-03-23T02:06:30;33.30;;;21.93;;
7432;SDS011;32233;49.500;7.764;2024-03-23T02:08:55;35.13;;;22.63;;
7432;SDS011;32233;49.500;7.764;2024-03-23T02:11:21;36.07;;;23.37;;
7432;SDS011;32233;49.500;7.764;2024-03-23T02:13:47;33.43;;;22.50;;
7432;SDS011;32233;49.500;7.764;2024-03-23T02:16:13;33.00;;;22.17;;
7432;SDS011;32233;49.500;7.764;2024-03-23T02:18:39;32.20;;;20.87;;
7432;SDS011;32233;49.500;7.764;2024-03-23T02:21:04;37.00;;;21.97;;
7432;SDS011;32233;49.500;7.764;2024-03-23T02:23:30;35.17;;;22.17;;
7432;SDS011;32233;49.500;7.764;2024-03-23T02:25:56;37.10;;;21.80;;
7432;SDS011;32233;49.500;7.764;2024-03-23T02:28:22;36.30;;;23.13;;
7432;SDS011;32233;49.500;7.764;2024-03-23T02:30:48;38.47;;;22.80;;
7432;SDS011;32233;49.500;7.764;2024-03-23T02:33:14;32.80;;;22.00;;
7432;SDS011;32233;49.500;7.764;2024-03-23T02:35:40;37.77;;;23.40;;
7432;SDS011;32233;49.500;7.764;2024-03-23T02:38:07;35.47;;;21.83;;
7432;SDS011;32233;49.500;7.764;2024-03-23T02:40:32;33.53;;;21.50;;
7432;SDS011;32233;49.500;7.764;2024-03-23T02:42:58;38.80;;;21.87;;
7432;SDS011;32233;49.500;7.764;2024-03-23T02:45:23;32.93;;;21.13;;
7432;SDS011;32233;49.500;7.764;2024-03-23T02:47:49;38.53;;;20.90;;
7432;SDS011;32233;49.500;7.764;2024-03-23T02:50:18;32.90;;;21.07;;
7432;SDS011;32233;49.500;7.764;2024-03-23T02:52:44;27.80;;;18.57;;
7432;SDS011;32233;49.500;7.764;2024-03-23T02:55:10;34.43;;;19.57;;
7432;SDS011;32233;49.500;7.764;2024-03-23T02:57:35;33.73;;;20.27;;
7432;SDS011;32233;49.500;7.764;2024-03-23T03:00:01;37.77;;;22.67;;
7432;SDS011;32233;49.500;7.764;2024-03-23T03:02:27;35.57;;;20.83;;
7432;SDS011;32233;49.500;7.764;2024-03-23T03:04:52;36.30;;;21.33;;
7432;SDS011;32233;49.500;7.764;2024-03-23T03:07:18;41.97;;;22.90;;
7432;SDS011;32233;49.500;7.764;2024-03-23T03:09:43;38.13;;;21.13;;
7432;SDS011;32233;49.500;7.764;2024-03-23T03:12:09;39.50;;;21.50;;
7432;SDS011;32233;49.500;7.764;2024-03-23T03:14:34;40.83;;;21.37;;
7432;SDS011;32233;49.500;7.764;2024-03-23T03:17:00;39.40;;;21.67;;
7432;SDS011;32233;49.500;7.764;2024-03-23T03:19:26;35.67;;;20.03;;
7432;SDS011;32233;49.500;7.764;2024-03-23T03:21:52;41.30;;;21.00;;
7432;SDS011;32233;49.500;7.764;2024-03-23T03:24:18;35.90;;;20.40;;
7432;SDS011;32233;49.500;7.764;2024-03-23T03:26:43;35.17;;;20.13;;
7432;SDS011;32233;49.500;7.764;2024-03-23T03:29:09;37.23;;;20.13;;
7432;SDS011;32233;49.500;7.764;2024-03-23T03:31:35;33.63;;;19.83;;
7432;SDS011;32233;49.500;7.764;2024-03-23T03:34:01;34.63;;;20.30;;
7432;SDS011;32233;49.500;7.764;2024-03-23T03:36:27;37.10;;;20.33;;
7432;SDS011;32233;49.500;7.764;2024-03-23T03:38:53;29.37;;;18.60;;
7432;SDS011;32233;49.500;7.764;2024-03-23T03:41:18;35.27;;;19.30;;
7432;SDS011;32233;49.500;7.764;2024-03-23T03:43:44;33.47;;;18.43;;
7432;SDS011;32233;49.500;7.764;2024-03-23T03:46:10;33.70;;;17.97;;
7432;SDS011;32233;49.500;7.764;2024-03-23T03:48:36;32.07;;;17.60;;
7432;SDS011;32233;49.500;7.764;2024-03-23T03:51:02;26.10;;;15.03;;
7432;SDS011;32233;49.500;7.764;2024-03-23T03:53:28;25.87;;;15.03;;
7432;SDS011;32233;49.500;7.764;2024-03-23T03:55:54;25.70;;;15.43;;
7432;SDS011;32233;49.500;7.764;2024-03-23T03:58:19;30.13;;;16.33;;
7432;SDS011;32233;49.500;7.764;2024-03-23T04:00:45;29.50;;;16.13;;
7432;SDS011;32233;49.500;7.764;2024-03-23T04:03:10;27.60;;;15.53;;
7432;SDS011;32233;49.500;7.764;2024-03-23T04:05:36;23.53;;;13.87;;
7432;SDS011;32233;49.500;7.764;2024-03-23T04:08:01;23.77;;;13.13;;
7432;SDS011;32233;49.500;7.764;2024-03-23T04:10:27;20.97;;;12.20;;
7432;SDS011;32233;49.500;7.764;2024-03-23T04:12:53;22.77;;;11.43;;
7432;SDS011;32233;49.500;7.764;2024-03-23T04:15:19;19.97;;;10.43;;
7432;SDS011;32233;49.500;7.764;2024-03-23T04:17:45;17.80;;;10.37;;
7432;SDS011;32233;49.500;7.764;2024-03-23T04:20:11;17.80;;;9.93;;
7432;SDS011;32233;49.500;7.764;2024-03-23T04:22:38;17.40;;;9.70;;
7432;SDS011;32233;49.500;7.764;2024-03-23T04:25:04;17.23;;;9.97;;
7432;SDS011;32233;49.500;7.764;2024-03-23T04:27:32;15.60;;;8.87;;
7432;SDS011;32233;49.500;7.764;2024-03-23T04:29:58;15.53;;;9.43;;
7432;SDS011;32233;49.500;7.764;2024-03-23T04:32:26;13.97;;;8.63;;
7432;SDS011;32233;49.500;7.764;2024-03-23T04:34:52;15.47;;;8.37;;
7432;SDS011;32233;49.500;7.764;2024-03-23T04:37:17;13.67;;;7.53;;
7432;SDS011;32233;49.500;7.764;2024-03-23T04:39:43;11.70;;;7.50;;
7432;SDS011;32233;49.500;7.764;2024-03-23T04:42:08;12.03;;;6.70;;
7432;SDS011;32233;49.500;7.764;2024-03-23T04:44:34;10.17;;;6.13;;
7432;SDS011;32233;49.500;7.764;2024-03-23T04:47:00;3.70;;;2.40;;
7432;SDS011;32233;49.500;7.764;2024-03-23T04:49:26;2.63;;;2.07;;
7432;SDS011;32233;49.500;7.764;2024-03-23T04:51:51;2.03;;;1.23;;
7432;SDS011;32233;49.500;7.764;2024-03-23T04:54:17;1.60;;;1.00;;
7432;SDS011;32233;49.500;7.764;2024-03-23T04:56:43;1.67;;;1.00;;
7432;SDS011;32233;49.500;7.764;2024-03-23T04:59:08;1.13;;;1.00;;
7432;SDS011;32233;49.500;7.764;2024-03-23T05:01:34;1.10;;;1.00;;
7432;SDS011;32233;49.500;7.764;2024-03-23T05:04:01;0.90;;;0.80;;
7432;SDS011;32233;49.500;7.764;2024-03-23T05:06:27;1.53;;;0.70;;
7432;SDS011;32233;49.500;7.764;2024-03-23T05:08:53;0.40;;;0.40;;
7432;SDS011;32233;49.500;7.764;2024-03-23T05:11:18;0.50;;;0.50;;
7432;SDS011;32233;49.500;7.764;2024-03-23T05:13:44;0.50;;;0.50;;
7432;SDS011;32233;49.500;7.764;2024-03-23T05:16:09;1.27;;;0.50;;
7432;SDS011;32233;49.500;7.764;2024-03-23T05:18:35;0.33;;;0.33;;
7432;SDS011;32233;49.500;7.764;2024-03-23T05:21:01;0.93;;;0.50;;
7432;SDS011;32233;49.500;7.764;2024-03-23T05:23:30;0.30;;;0.30;;
7432;SDS011;32233;49.500;7.764;2024-03-23T05:25:56;0.40;;;0.40;;
7432;SDS011;32233;49.500;7.764;2024-03-23T05:28:21;1.30;;;0.40;;
7432;SDS011;32233;49.500;7.764;2024-03-23T05:30:51;0.40;;;0.40;;
7432;SDS011;32233;49.500;7.764;2024-03-23T05:33:19;0.60;;;0.60;;
7432;SDS011;32233;49.500;7.764;2024-03-23T05:35:45;1.27;;;0.40;;
7432;SDS011;32233;49.500;7.764;2024-03-23T05:38:11;0.50;;;0.40;;
7432;SDS011;32233;49.500;7.764;2024-03-23T05:40:37;0.30;;;0.30;;
7432;SDS011;32233;49.500;7.764;2024-03-23T05:43:08;0.27;;;0.27;;
7432;SDS011;32233;49.500;7.764;2024-03-23T05:45:34;0.30;;;0.30;;
7432;SDS011;32233;49.500;7.764;2024-03-23T05:48:00;0.40;;;0.40;;
7432;SDS011;32233;49.500;7.764;2024-03-23T05:50:26;0.30;;;0.30;;
7432;SDS011;32233;49.500;7.764;2024-03-23T05:52:51;0.40;;;0.40;;
7432;SDS011;32233;49.500;7.764;2024-03-23T05:55:17;0.30;;;0.30;;
7432;SDS011;32233;49.500;7.764;2024-03-23T05:57:43;0.90;;;0.40;;
7432;SDS011;32233;49.500;7.764;2024-03-23T06:00:09;0.30;;;0.30;;
7432;SDS011;32233;49.500;7.764;2024-03-23T06:02:44;0.40;;;0.30;;
7432;SDS011;32233;49.500;7.764;2024-03-23T06:05:10;1.10;;;0.30;;
7432;SDS011;32233;49.500;7.764;2024-03-23T06:07:37;0.20;;;0.20;;
7432;SDS011;32233;49.500;7.764;2024-03-23T06:10:03;0.30;;;0.30;;
7432;SDS011;32233;49.500;7.764;2024-03-23T06:12:30;0.20;;;0.20;;
7432;SDS011;32233;49.500;7.764;2024-03-23T06:14:57;0.20;;;0.20;;
7432;SDS011;32233;49.500;7.764;2024-03-23T06:17:22;0.23;;;0.20;;
7432;SDS011;32233;49.500;7.764;2024-03-23T06:19:48;0.17;;;0.17;;
7432;SDS011;32233;49.500;7.764;2024-03-23T06:22:14;0.10;;;0.10;;
7432;SDS011;32233;49.500;7.764;2024-03-23T06:24:40;0.20;;;0.20;;
7432;SDS011;32233;49.500;7.764;2024-03-23T06:27:05;0.20;;;0.20;;
7432;SDS011;32233;49.500;7.764;2024-03-23T06:29:31;0.20;;;0.20;;
7432;SDS011;32233;49.500;7.764;2024-03-23T06:31:57;0.10;;;0.10;;
7432;SDS011;32233;49.500;7.764;2024-03-23T06:34:23;0.10;;;0.10;;
7432;SDS011;32233;49.500;7.764;2024-03-23T06:36:49;0.20;;;0.20;;
7432;SDS011;32233;49.500;7.764;2024-03-23T06:39:15;1.13;;;0.40;;
7432;SDS011;32233;49.500;7.764;2024-03-23T06:41:42;0.30;;;0.30;;
7432;SDS011;32233;49.500;7.764;2024-03-23T06:44:08;0.70;;;0.40;;
7432;SDS011;32233;49.500;7.764;2024-03-23T06:46:34;3.60;;;0.53;;
7432;SDS011;32233;49.500;7.764;2024-03-23T06:48:59;1.60;;;0.60;;
7432;SDS011;32233;49.500;7.764;2024-03-23T06:51:25;0.50;;;0.50;;
7432;SDS011;32233;49.500;7.764;2024-03-23T06:53:50;3.57;;;0.77;;
7432;SDS011;32233;49.500;7.764;2024-03-23T06:56:16;1.90;;;0.60;;
7432;SDS011;32233;49.500;7.764;2024-03-23T06:58:41;2.00;;;0.90;;
7432;SDS011;32233;49.500;7.764;2024-03-23T07:01:07;3.03;;;1.30;;
7432;SDS011;32233;49.500;7.764;2024-03-23T07:03:32;2.67;;;1.00;;
7432;SDS011;32233;49.500;7.764;2024-03-23T07:05:58;1.97;;;0.83;;
7432;SDS011;32233;49.500;7.764;2024-03-23T07:08:24;1.97;;;0.90;;
7432;SDS011;32233;49.500;7.764;2024-03-23T07:10:50;3.97;;;0.90;;
7432;SDS011;32233;49.500;7.764;2024-03-23T07:13:15;3.37;;;1.27;;
7432;SDS011;32233;49.500;7.764;2024-03-23T07:15:42;2.07;;;1.30;;
7432;SDS011;32233;49.500;7.764;2024-03-23T07:18:08;4.37;;;1.47;;
7432;SDS011;32233;49.500;7.764;2024-03-23T07:20:34;4.10;;;1.53;;
7432;SDS011;32233;49.500;7.764;2024-03-23T07:22:59;4.77;;;1.57;;
7432;SDS011;32233;49.500;7.764;2024-03-23T07:25:25;3.20;;;1.57;;
7432;SDS011;32233;49.500;7.764;2024-03-23T07:27:55;4.67;;;1.83;;
7432;SDS011;32233;49.500;7.764;2024-03-23T07:30:20;3.87;;;1.40;;
7432;SDS011;32233;49.500;7.764;2024-03-23T07:32:46;4.70;;;1.80;;
7432;SDS011;32233;49.500;7.764;2024-03-23T07:35:11;5.73;;;1.70;;
7432;SDS011;32233;49.500;7.764;2024-03-23T07:37:37;2.93;;;1.63;;
7432;SDS011;32233;49.500;7.764;2024-03-23T07:40:03;7.07;;;1.97;;
7432;SDS011;32233;49.500;7.764;2024-03-23T07:42:29;6.00;;;2.00;;
7432;SDS011;32233;49.500;7.764;2024-03-23T07:44:54;9.87;;;2.40;;
7432;SDS011;32233;49.500;7.764;2024-03-23T07:47:22;7.17;;;2.67;;
7432;SDS011;32233;49.500;7.764;2024-03-23T07:49:48;6.07;;;2.30;;
7432;SDS011;32233;49.500;7.764;2024-03-23T07:52:14;5.63;;;2.20;;
7432;SDS011;32233;49.500;7.764;2024-03-23T07:54:39;4.70;;;2.00;;
7432;SDS011;32233;49.500;7.764;2024-03-23T07:57:05;6.37;;;2.37;;
7432;SDS011;32233;49.500;7.764;2024-03-23T07:59:31;5.77;;;2.13;;
7432;SDS011;32233;49.500;7.764;2024-03-23T08:01:59;8.30;;;2.77;;
7432;SDS011;32233;49.500;7.764;2024-03-23T08:04:25;6.57;;;2.67;;
7432;SDS011;32233;49.500;7.764;2024-03-23T08:06:52;9.27;;;3.60;;
7432;SDS011;32233;49.500;7.764;2024-03-23T08:09:17;10.57;;;4.30;;
7432;SDS011;32233;49.500;7.764;2024-03-23T08:11:43;9.93;;;3.30;;
7432;SDS011;32233;49.500;7.764;2024-03-23T08:14:11;7.90;;;2.87;;
7432;SDS011;32233;49.500;7.764;2024-03-23T08:16:36;8.10;;;2.87;;
7432;SDS011;32233;49.500;7.764;2024-03-23T08:19:02;6.67;;;3.00;;
7432;SDS011;32233;49.500;7.764;2024-03-23T08:21:29;7.53;;;3.83;;
7432;SDS011;32233;49.500;7.764;2024-03-23T08:23:54;7.40;;;3.47;;
7432;SDS011;32233;49.500;7.764;2024-03-23T08:26:20;8.27;;;3.30;;
7432;SDS011;32233;49.500;7.764;2024-03-23T08:28:46;5.70;;;3.37;;
7432;SDS011;32233;49.500;7.764;2024-03-23T08:31:12;10.40;;;3.57;;
7432;SDS011;32233;49.500;7.764;2024-03-23T08:33:38;4.93;;;2.80;;
7432;SDS011;32233;49.500;7.764;2024-03-23T08:36:05;8.30;;;3.10;;
7432;SDS011;32233;49.500;7.764;2024-03-23T08:38:32;9.27;;;3.70;;
7432;SDS011;32233;49.500;7.764;2024-03-23T08:40:58;8.17;;;3.40;;
7432;SDS011;32233;49.500;7.764;2024-03-23T08:43:24;7.33;;;3.20;;
7432;SDS011;32233;49.500;7.764;2024-03-23T08:45:50;7.43;;;3.00;;
7432;SDS011;32233;49.500;7.764;2024-03-23T08:48:16;7.33;;;3.70;;
7432;SDS011;32233;49.500;7.764;2024-03-23T08:50:41;8.27;;;3.87;;
7432;SDS011;32233;49.500;7.764;2024-03-23T08:53:07;6.27;;;3.47;;
7432;SDS011;32233;49.500;7.764;2024-03-23T08:55:33;7.70;;;3.70;;
7432;SDS011;32233;49.500;7.764;2024-03-23T08:57:58;9.57;;;3.70;;
7432;SDS011;32233;49.500;7.764;2024-03-23T09:00:25;12.17;;;3.80;;
7432;SDS011;32233;49.500;7.764;2024-03-23T09:02:51;8.47;;;3.70;;
7432;SDS011;32233;49.500;7.764;2024-03-23T09:05:17;10.73;;;4.00;;
7432;SDS011;32233;49.500;7.764;2024-03-23T09:07:42;7.50;;;3.30;;
7432;SDS011;32233;49.500;7.764;2024-03-23T09:10:08;8.63;;;3.43;;
7432;SDS011;32233;49.500;7.764;2024-03-23T09:12:34;7.77;;;2.77;;
7432;SDS011;32233;49.500;7.764;2024-03-23T09:14:59;9.37;;;4.00;;
7432;SDS011;32233;49.500;7.764;2024-03-23T09:17:25;10.70;;;3.70;;
7432;SDS011;32233;49.500;7.764;2024-03-23T09:19:50;8.23;;;3.30;;
7432;SDS011;32233;49.500;7.764;2024-03-23T09:22:16;8.27;;;3.23;;
7432;SDS011;32233;49.500;7.764;2024-03-23T09:24:41;8.70;;;3.57;;
7432;SDS011;32233;49.500;7.764;2024-03-23T09:27:07;7.83;;;3.00;;
7432;SDS011;32233;49.500;7.764;2024-03-23T09:29:33;8.93;;;3.13;;
7432;SDS011;32233;49.500;7.764;2024-03-23T09:31:58;9.07;;;3.47;;
7432;SDS011;32233;49.500;7.764;2024-03-23T09:34:24;7.50;;;3.00;;
7432;SDS011;32233;49.500;7.764;2024-03-23T09:36:53;8.87;;;3.10;;
7432;SDS011;32233;49.500;7.764;2024-03-23T09:39:18;7.93;;;2.90;;
7432;SDS011;32233;49.500;7.764;2024-03-23T09:41:45;6.97;;;3.10;;
7432;SDS011;32233;49.500;7.764;2024-03-23T09:44:11;8.37;;;3.20;;
7432;SDS011;32233;49.500;7.764;2024-03-23T09:46:37;9.80;;;3.03;;
7432;SDS011;32233;49.500;7.764;2024-03-23T09:49:04;9.37;;;3.20;;
7432;SDS011;32233;49.500;7.764;2024-03-23T09:51:35;10.53;;;3.00;;
7432;SDS011;32233;49.500;7.764;2024-03-23T09:54:02;8.13;;;3.40;;
7432;SDS011;32233;49.500;7.764;2024-03-23T09:56:28;7.07;;;2.70;;
7432;SDS011;32233;49.500;7.764;2024-03-23T09:59:00;6.00;;;2.13;;
7432;SDS011;32233;49.500;7.764;2024-03-23T10:01:29;6.47;;;2.33;;
7432;SDS011;32233;49.500;7.764;2024-03-23T10:03:55;5.97;;;2.33;;
7432;SDS011;32233;49.500;7.764;2024-03-23T10:06:22;6.23;;;2.50;;
7432;SDS011;32233;49.500;7.764;2024-03-23T10:08:50;7.60;;;2.40;;
7432;SDS011;32233;49.500;7.764;2024-03-23T10:11:17;8.27;;;2.60;;
7432;SDS011;32233;49.500;7.764;2024-03-23T10:13:44;7.83;;;2.43;;
7432;SDS011;32233;49.500;7.764;2024-03-23T10:16:11;6.23;;;2.37;;
7432;SDS011;32233;49.500;7.764;2024-03-23T10:18:37;6.77;;;2.40;;
7432;SDS011;32233;49.500;7.764;2024-03-23T10:21:08;9.03;;;2.63;;
7432;SDS011;32233;49.500;7.764;2024-03-23T10:23:36;5.70;;;2.57;;
7432;SDS011;32233;49.500;7.764;2024-03-23T10:26:13;6.53;;;2.03;;
7432;SDS011;32233;49.500;7.764;2024-03-23T10:31:17;3.27;;;1.63;;
7432;SDS011;32233;49.500;7.764;2024-03-23T10:33:47;5.27;;;2.00;;
7432;SDS011;32233;49.500;7.764;2024-03-23T10:36:14;9.80;;;2.33;;
7432;SDS011;32233;49.500;7.764;2024-03-23T10:38:43;6.30;;;2.30;;
7432;SDS011;32233;49.500;7.764;2024-03-23T10:41:10;5.73;;;2.17;;
7432;SDS011;32233;49.500;7.764;2024-03-23T10:43:37;6.77;;;2.67;;
7432;SDS011;32233;49.500;7.764;2024-03-23T10:46:03;10.70;;;2.93;;
7432;SDS011;32233;49.500;7.764;2024-03-23T10:48:29;5.43;;;3.10;;
7432;SDS011;32233;49.500;7.764;2024-03-23T10:50:55;4.73;;;2.57;;
7432;SDS011;32233;49.500;7.764;2024-03-23T10:53:21;7.77;;;3.00;;
7432;SDS011;32233;49.500;7.764;2024-03-23T10:55:51;9.67;;;2.90;;
7432;SDS011;32233;49.500;7.764;2024-03-23T10:58:24;6.83;;;2.47;;
7432;SDS011;32233;49.500;7.764;2024-03-23T11:00:55;5.00;;;2.30;;
7432;SDS011;32233;49.500;7.764;2024-03-23T11:03:34;3.77;;;2.37;;
7432;SDS011;32233;49.500;7.764;2024-03-23T11:06:04;7.53;;;3.07;;
7432;SDS011;32233;49.500;7.764;2024-03-23T11:08:34;6.80;;;2.90;;
7432;SDS011;32233;49.500;7.764;2024-03-23T11:11:20;5.50;;;2.73;;
7432;SDS011;32233;49.500;7.764;2024-03-23T11:13:53;4.83;;;2.10;;
7432;SDS011;32233;49.500;7.764;2024-03-23T11:16:26;6.33;;;2.13;;
7432;SDS011;32233;49.500;7.764;2024-03-23T11:19:32;2.57;;;1.23;;
7432;SDS011;32233;49.500;7.764;2024-03-23T11:22:02;2.20;;;1.13;;
7432;SDS011;32233;49.500;7.764;2024-03-23T11:24:29;5.77;;;1.70;;
7432;SDS011;32233;49.500;7.764;2024-03-23T11:26:54;6.83;;;2.20;;
7432;SDS011;32233;49.500;7.764;2024-03-23T11:29:20;4.93;;;2.00;;
7432;SDS011;32233;49.500;7.764;2024-03-23T11:31:50;5.80;;;2.00;;
7432;SDS011;32233;49.500;7.764;2024-03-23T11:34:18;5.00;;;1.87;;
7432;SDS011;32233;49.500;7.764;2024-03-23T11:36:45;3.47;;;1.17;;
7432;SDS011;32233;49.500;7.764;2024-03-23T11:39:18;1.07;;;0.97;;
7432;SDS011;32233;49.500;7.764;2024-03-23T11:41:46;3.10;;;1.20;;
7432;SDS011;32233;49.500;7.764;2024-03-23T11:44:18;1.63;;;1.17;;
7432;SDS011;32233;49.500;7.764;2024-03-23T11:46:45;2.70;;;1.20;;
7432;SDS011;32233;49.500;7.764;2024-03-23T11:49:24;4.10;;;1.20;;
7432;SDS011;32233;49.500;7.764;2024-03-23T11:51:51;1.10;;;0.90;;
7432;SDS011;32233;49.500;7.764;2024-03-23T11:54:25;2.03;;;1.20;;
7432;SDS011;32233;49.500;7.764;2024-03-23T11:56:58;1.97;;;1.10;;
7432;SDS011;32233;49.500;7.764;2024-03-23T12:01:59;1.30;;;1.20;;
7432;SDS011;32233;49.500;7.764;2024-03-23T12:04:28;2.00;;;1.13;;
7432;SDS011;32233;49.500;7.764;2024-03-23T12:07:13;2.47;;;1.20;;
7432;SDS011;32233;49.500;7.764;2024-03-23T12:09:45;3.27;;;1.10;;
7432;SDS011;32233;49.500;7.764;2024-03-23T12:12:15;3.93;;;1.53;;
7432;SDS011;32233;49.500;7.764;2024-03-23T12:15:00;4.40;;;1.57;;
7432;SDS011;32233;49.500;7.764;2024-03-23T12:17:27;3.10;;;1.43;;
7432;SDS011;32233;49.500;7.764;2024-03-23T12:19:53;1.77;;;0.80;;
7432;SDS011;32233;49.500;7.764;2024-03-23T12:22:22;3.43;;;0.70;;
7432;SDS011;32233;49.500;7.764;2024-03-23T12:24:48;1.53;;;0.90;;
7432;SDS011;32233;49.500;7.764;2024-03-23T12:27:14;2.50;;;0.80;;
7432;SDS011;32233;49.500;7.764;2024-03-23T12:29:40;2.50;;;0.70;;
7432;SDS011;32233;49.500;7.764;2024-03-23T12:32:07;3.43;;;0.80;;
7432;SDS011;32233;49.500;7.764;2024-03-23T12:34:33;1.63;;;0.60;;
7432;SDS011;32233;49.500;7.764;2024-03-23T12:36:58;1.83;;;0.70;;
7432;SDS011;32233;49.500;7.764;2024-03-23T12:39:24;2.90;;;0.90;;
7432;SDS011;32233;49.500;7.764;2024-03-23T12:41:50;3.73;;;1.00;;
7432;SDS011;32233;49.500;7.764;2024-03-23T12:44:18;1.10;;;1.00;;
7432;SDS011;32233;49.500;7.764;2024-03-23T12:46:44;2.67;;;1.20;;
7432;SDS011;32233;49.500;7.764;2024-03-23T12:49:10;1.23;;;1.10;;
7432;SDS011;32233;49.500;7.764;2024-03-23T12:51:36;2.43;;;1.00;;
7432;SDS011;32233;49.500;7.764;2024-03-23T12:54:02;1.50;;;1.10;;
7432;SDS011;32233;49.500;7.764;2024-03-23T12:56:28;3.07;;;1.07;;
7432;SDS011;32233;49.500;7.764;2024-03-23T12:58:54;1.83;;;0.70;;
7432;SDS011;32233;49.500;7.764;2024-03-23T13:01:20;1.93;;;0.80;;
7432;SDS011;32233;49.500;7.764;2024-03-23T13:03:47;2.07;;;0.90;;
7432;SDS011;32233;49.500;7.764;2024-03-23T13:06:12;1.10;;;0.60;;
7432;SDS011;32233;49.500;7.764;2024-03-23T13:08:38;2.03;;;0.70;;
7432;SDS011;32233;49.500;7.764;2024-03-23T13:11:06;2.73;;;0.70;;
7432;SDS011;32233;49.500;7.764;2024-03-23T13:13:34;1.27;;;0.70;;
7432;SDS011;32233;49.500;7.764;2024-03-23T13:16:00;2.20;;;0.80;;
7432;SDS011;32233;49.500;7.764;2024-03-23T13:18:26;1.33;;;0.70;;
7432;SDS011;32233;49.500;7.764;2024-03-23T13:20:51;1.43;;;0.60;;
7432;SDS011;32233;49.500;7.764;2024-03-23T13:23:17;1.23;;;0.70;;
7432;SDS011;32233;49.500;7.764;2024-03-23T13:25:49;2.17;;;0.80;;
7432;SDS011;32233;49.500;7.764;2024-03-23T13:28:22;2.70;;;1.07;;
7432;SDS011;32233;49.500;7.764;2024-03-23T13:33:16;2.03;;;0.63;;
7432;SDS011;32233;49.500;7.764;2024-03-23T13:35:48;2.17;;;1.00;;
7432;SDS011;32233;49.500;7.764;2024-03-23T13:38:15;1.00;;;0.90;;
7432;SDS011;32233;49.500;7.764;2024-03-23T13:40:48;1.70;;;1.20;;
7432;SDS011;32233;49.500;7.764;2024-03-23T13:43:24;1.30;;;1.20;;
7432;SDS011;32233;49.500;7.764;2024-03-23T13:45:58;2.37;;;1.20;;
7432;SDS011;32233;49.500;7.764;2024-03-23T13:48:25;2.20;;;1.00;;
7432;SDS011;32233;49.500;7.764;2024-03-23T13:51:04;1.43;;;1.00;;
7432;SDS011;32233;49.500;7.764;2024-03-23T13:53:31;1.90;;;1.07;;
7432;SDS011;32233;49.500;7.764;2024-03-23T13:55:58;1.50;;;1.00;;
7432;SDS011;32233;49.500;7.764;2024-03-23T13:58:23;2.67;;;1.17;;
7432;SDS011;32233;49.500;7.764;2024-03-23T14:00:51;1.47;;;0.90;;
7432;SDS011;32233;49.500;7.764;2024-03-23T14:03:16;2.00;;;0.80;;
7432;SDS011;32233;49.500;7.764;2024-03-23T14:05:43;0.97;;;0.73;;
7432;SDS011;32233;49.500;7.764;2024-03-23T14:08:09;2.00;;;0.87;;
7432;SDS011;32233;49.500;7.764;2024-03-23T14:10:36;2.60;;;0.87;;
7432;SDS011;32233;49.500;7.764;2024-03-23T14:13:05;1.30;;;0.73;;
7432;SDS011;32233;49.500;7.764;2024-03-23T14:15:31;1.70;;;0.40;;
7432;SDS011;32233;49.500;7.764;2024-03-23T14:17:57;2.20;;;0.40;;
7432;SDS011;32233;49.500;7.764;2024-03-23T14:20:25;2.50;;;0.37;;
7432;SDS011;32233;49.500;7.764;2024-03-23T14:22:51;1.10;;;0.37;;
7432;SDS011;32233;49.500;7.764;2024-03-23T14:25:17;0.63;;;0.30;;
7432;SDS011;32233;49.500;7.764;2024-03-23T14:27:44;1.10;;;0.40;;
7432;SDS011;32233;49.500;7.764;2024-03-23T14:30:10;2.07;;;0.40;;
7432;SDS011;32233;49.500;7.764;2024-03-23T14:32:37;1.70;;;0.67;;
7432;SDS011;32233;49.500;7.764;2024-03-23T14:35:03;1.17;;;0.50;;
7432;SDS011;32233;49.500;7.764;2024-03-23T14:37:29;2.00;;;0.40;;
7432;SDS011;32233;49.500;7.764;2024-03-23T14:39:56;2.63;;;0.50;;
7432;SDS011;32233;49.500;7.764;2024-03-23T14:42:22;1.10;;;0.50;;
7432;SDS011;32233;49.500;7.764;2024-03-23T14:44:49;1.80;;;0.50;;
7432;SDS011;32233;49.500;7.764;2024-03-23T14:47:15;5.13;;;1.27;;
7432;SDS011;32233;49.500;7.764;2024-03-23T14:49:43;3.10;;;0.80;;
7432;SDS011;32233;49.500;7.764;2024-03-23T14:52:15;4.10;;;0.83;;
7432;SDS011;32233;49.500;7.764;2024-03-23T14:54:41;4.37;;;1.00;;
7432;SDS011;32233;49.500;7.764;2024-03-23T14:57:07;5.10;;;0.90;;
7432;SDS011;32233;49.500;7.764;2024-03-23T14:59:34;1.70;;;0.80;;
7432;SDS011;32233;49.500;7.764;2024-03-23T15:02:04;0.93;;;0.67;;
7432;SDS011;32233;49.500;7.764;2024-03-23T15:04:30;0.70;;;0.60;;
7432;SDS011;32233;49.500;7.764;2024-03-23T15:06:56;1.27;;;0.70;;
7432;SDS011;32233;49.500;7.764;2024-03-23T15:09:21;3.03;;;1.40;;
7432;SDS011;32233;49.500;7.764;2024-03-23T15:11:47;1.43;;;0.80;;
7432;SDS011;32233;49.500;7.764;2024-03-23T15:14:13;1.63;;;0.87;;
7432;SDS011;32233;49.500;7.764;2024-03-23T15:16:38;1.67;;;0.80;;
7432;SDS011;32233;49.500;7.764;2024-03-23T15:19:04;4.80;;;1.13;;
7432;SDS011;32233;49.500;7.764;2024-03-23T15:21:31;1.37;;;0.77;;
7432;SDS011;32233;49.500;7.764;2024-03-23T15:23:57;3.40;;;0.80;;
7432;SDS011;32233;49.500;7.764;2024-03-23T15:26:23;0.80;;;0.60;;
7432;SDS011;32233;49.500;7.764;2024-03-23T15:28:48;1.97;;;0.90;;
7432;SDS011;32233;49.500;7.764;2024-03-23T15:31:23;2.90;;;0.90;;
7432;SDS011;32233;49.500;7.764;2024-03-23T15:33:49;2.47;;;1.07;;
7432;SDS011;32233;49.500;7.764;2024-03-23T15:36:15;1.63;;;1.00;;
7432;SDS011;32233;49.500;7.764;2024-03-23T15:38:41;2.00;;;0.70;;
7432;SDS011;32233;49.500;7.764;2024-03-23T15:41:08;3.37;;;0.70;;
7432;SDS011;32233;49.500;7.764;2024-03-23T15:43:34;1.77;;;0.70;;
7432;SDS011;32233;49.500;7.764;2024-03-23T15:46:00;1.37;;;0.70;;
7432;SDS011;32233;49.500;7.764;2024-03-23T15:48:27;1.30;;;0.70;;
7432;SDS011;32233;49.500;7.764;2024-03-23T15:50:54;1.43;;;0.57;;
7432;SDS011;32233;49.500;7.764;2024-03-23T15:53:20;2.30;;;0.80;;